sensor_id;sensor_type;location;lat;lon;timestamp;temperature;humidity
64501;DHT22;50874;24.150;-110.320;2023-06-24T00:01:29;39.10;53.70
64501;DHT22;50874;24.150;-110.320;2023-06-24T00:03:57;38.90;53.80
64501;DHT22;50874;24.150;-110.320;2023-06-24T00:06:24;39.00;53.80
64501;DHT22;50874;24.150;-110.320;2023-06-24T00:08:52;39.00;53.90
64501;DHT22;50874;24.150;-110.320;2023-06-24T00:11:27;39.00;54.10
64501;DHT22;50874;24.150;-110.320;2023-06-24T00:13:54;39.00;54.00
64501;DHT22;50874;24.150;-110.320;2023-06-24T00:16:20;38.90;53.60
64501;DHT22;50874;24.150;-110.320;2023-06-24T00:18:55;38.80;53.40
64501;DHT22;50874;24.150;-110.320;2023-06-24T00:21:29;38.80;53.40
64501;DHT22;50874;24.150;-110.320;2023-06-24T00:23:59;38.70;53.80
64501;DHT22;50874;24.150;-110.320;2023-06-24T00:26:30;38.30;52.80
64501;DHT22;50874;24.150;-110.320;2023-06-24T00:28:58;38.30;52.10
64501;DHT22;50874;24.150;-110.320;2023-06-24T00:31:25;38.00;50.30
64501;DHT22;50874;24.150;-110.320;2023-06-24T00:33:51;37.90;49.70
64501;DHT22;50874;24.150;-110.320;2023-06-24T00:36:18;37.80;50.30
64501;DHT22;50874;24.150;-110.320;2023-06-24T00:38:45;37.60;49.30
64501;DHT22;50874;24.150;-110.320;2023-06-24T00:41:11;37.50;48.40
64501;DHT22;50874;24.150;-110.320;2023-06-24T00:43:38;37.40;47.50
64501;DHT22;50874;24.150;-110.320;2023-06-24T00:46:05;37.40;47.00
64501;DHT22;50874;24.150;-110.320;2023-06-24T00:48:32;37.40;45.60
64501;DHT22;50874;24.150;-110.320;2023-06-24T00:50:58;37.20;45.60
64501;DHT22;50874;24.150;-110.320;2023-06-24T00:53:25;37.20;45.90
64501;DHT22;50874;24.150;-110.320;2023-06-24T00:55:53;37.10;46.00
64501;DHT22;50874;24.150;-110.320;2023-06-24T00:58:20;37.20;46.70
64501;DHT22;50874;24.150;-110.320;2023-06-24T01:00:47;37.20;46.70
64501;DHT22;50874;24.150;-110.320;2023-06-24T01:03:24;37.10;48.20
64501;DHT22;50874;24.150;-110.320;2023-06-24T01:05:51;37.10;48.80
64501;DHT22;50874;24.150;-110.320;2023-06-24T01:08:19;37.10;48.40
64501;DHT22;50874;24.150;-110.320;2023-06-24T01:10:49;37.00;47.50
64501;DHT22;50874;24.150;-110.320;2023-06-24T01:13:18;36.90;46.40
64501;DHT22;50874;24.150;-110.320;2023-06-24T01:15:46;36.80;46.70
64501;DHT22;50874;24.150;-110.320;2023-06-24T01:18:31;36.70;44.40
64501;DHT22;50874;24.150;-110.320;2023-06-24T01:21:10;36.50;42.90
64501;DHT22;50874;24.150;-110.320;2023-06-24T01:24:08;36.50;43.10
64501;DHT22;50874;24.150;-110.320;2023-06-24T01:27:10;36.40;43.70
64501;DHT22;50874;24.150;-110.320;2023-06-24T01:32:50;36.30;42.50
64501;DHT22;50874;24.150;-110.320;2023-06-24T01:35:25;36.20;42.30
64501;DHT22;50874;24.150;-110.320;2023-06-24T01:37:54;36.10;40.30
64501;DHT22;50874;24.150;-110.320;2023-06-24T01:40:32;36.00;39.40
64501;DHT22;50874;24.150;-110.320;2023-06-24T01:43:03;36.00;40.70
64501;DHT22;50874;24.150;-110.320;2023-06-24T01:45:47;35.90;41.40
64501;DHT22;50874;24.150;-110.320;2023-06-24T01:48:16;35.80;41.70
64501;DHT22;50874;24.150;-110.320;2023-06-24T01:50:54;35.90;41.00
64501;DHT22;50874;24.150;-110.320;2023-06-24T01:53:21;35.90;41.30
64501;DHT22;50874;24.150;-110.320;2023-06-24T01:55:49;35.90;41.40
64501;DHT22;50874;24.150;-110.320;2023-06-24T01:58:17;35.90;39.70
64501;DHT22;50874;24.150;-110.320;2023-06-24T02:00:46;35.90;38.70
64501;DHT22;50874;24.150;-110.320;2023-06-24T02:03:15;35.80;39.00
64501;DHT22;50874;24.150;-110.320;2023-06-24T02:05:42;35.80;39.50
64501;DHT22;50874;24.150;-110.320;2023-06-24T02:08:10;35.80;39.50
64501;DHT22;50874;24.150;-110.320;2023-06-24T02:10:40;35.70;39.40
64501;DHT22;50874;24.150;-110.320;2023-06-24T02:13:09;35.70;39.70
64501;DHT22;50874;24.150;-110.320;2023-06-24T02:15:37;35.70;40.20
64501;DHT22;50874;24.150;-110.320;2023-06-24T02:18:04;35.60;40.40
64501;DHT22;50874;24.150;-110.320;2023-06-24T02:20:32;35.50;39.50
64501;DHT22;50874;24.150;-110.320;2023-06-24T02:22:59;35.30;55.90
64501;DHT22;50874;24.150;-110.320;2023-06-24T02:25:26;34.90;59.20
64501;DHT22;50874;24.150;-110.320;2023-06-24T02:27:55;34.20;61.50
64501;DHT22;50874;24.150;-110.320;2023-06-24T02:30:22;33.80;63.10
64501;DHT22;50874;24.150;-110.320;2023-06-24T02:32:49;33.50;63.80
64501;DHT22;50874;24.150;-110.320;2023-06-24T02:35:16;33.40;64.30
64501;DHT22;50874;24.150;-110.320;2023-06-24T02:37:42;33.30;64.90
64501;DHT22;50874;24.150;-110.320;2023-06-24T02:40:09;33.10;65.30
64501;DHT22;50874;24.150;-110.320;2023-06-24T02:42:36;33.10;65.30
64501;DHT22;50874;24.150;-110.320;2023-06-24T02:45:03;33.10;65.70
64501;DHT22;50874;24.150;-110.320;2023-06-24T02:47:32;33.00;65.90
64501;DHT22;50874;24.150;-110.320;2023-06-24T02:49:59;32.90;66.50
64501;DHT22;50874;24.150;-110.320;2023-06-24T02:52:26;32.80;67.70
64501;DHT22;50874;24.150;-110.320;2023-06-24T02:54:57;32.80;67.10
64501;DHT22;50874;24.150;-110.320;2023-06-24T02:57:26;32.60;67.30
64501;DHT22;50874;24.150;-110.320;2023-06-24T02:59:52;32.60;67.30
64501;DHT22;50874;24.150;-110.320;2023-06-24T03:02:19;32.50;67.80
64501;DHT22;50874;24.150;-110.320;2023-06-24T03:04:47;32.40;68.10
64501;DHT22;50874;24.150;-110.320;2023-06-24T03:07:14;32.40;68.10
64501;DHT22;50874;24.150;-110.320;2023-06-24T03:09:42;32.40;68.40
64501;DHT22;50874;24.150;-110.320;2023-06-24T03:12:09;32.40;68.70
64501;DHT22;50874;24.150;-110.320;2023-06-24T03:14:35;32.30;75.90
64501;DHT22;50874;24.150;-110.320;2023-06-24T03:17:01;32.00;78.70
64501;DHT22;50874;24.150;-110.320;2023-06-24T03:19:28;32.00;79.00
64501;DHT22;50874;24.150;-110.320;2023-06-24T03:21:55;31.80;80.00
64501;DHT22;50874;24.150;-110.320;2023-06-24T03:24:21;31.80;80.60
64501;DHT22;50874;24.150;-110.320;2023-06-24T03:26:48;31.80;83.00
64501;DHT22;50874;24.150;-110.320;2023-06-24T03:29:22;31.70;83.70
64501;DHT22;50874;24.150;-110.320;2023-06-24T03:31:48;31.50;83.00
64501;DHT22;50874;24.150;-110.320;2023-06-24T03:34:16;31.40;83.40
64501;DHT22;50874;24.150;-110.320;2023-06-24T03:36:45;31.30;84.70
64501;DHT22;50874;24.150;-110.320;2023-06-24T03:39:12;31.20;85.70
64501;DHT22;50874;24.150;-110.320;2023-06-24T03:41:38;31.20;86.40
64501;DHT22;50874;24.150;-110.320;2023-06-24T03:44:05;31.10;86.90
64501;DHT22;50874;24.150;-110.320;2023-06-24T03:46:31;31.00;87.30
64501;DHT22;50874;24.150;-110.320;2023-06-24T03:48:59;30.90;87.60
64501;DHT22;50874;24.150;-110.320;2023-06-24T03:51:28;30.90;88.20
64501;DHT22;50874;24.150;-110.320;2023-06-24T03:53:55;30.80;88.80
64501;DHT22;50874;24.150;-110.320;2023-06-24T03:56:21;30.90;89.00
64501;DHT22;50874;24.150;-110.320;2023-06-24T03:58:48;30.80;89.30
64501;DHT22;50874;24.150;-110.320;2023-06-24T04:01:14;30.70;89.40
64501;DHT22;50874;24.150;-110.320;2023-06-24T04:03:42;30.60;89.60
64501;DHT22;50874;24.150;-110.320;2023-06-24T04:06:08;30.60;89.90
64501;DHT22;50874;24.150;-110.320;2023-06-24T04:08:34;30.60;90.00
64501;DHT22;50874;24.150;-110.320;2023-06-24T04:11:05;30.50;89.70
64501;DHT22;50874;24.150;-110.320;2023-06-24T04:13:33;30.40;89.80
64501;DHT22;50874;24.150;-110.320;2023-06-24T04:15:59;30.40;90.10
64501;DHT22;50874;24.150;-110.320;2023-06-24T04:18:26;30.30;90.10
64501;DHT22;50874;24.150;-110.320;2023-06-24T04:20:52;30.30;90.20
64501;DHT22;50874;24.150;-110.320;2023-06-24T04:23:18;30.30;90.20
64501;DHT22;50874;24.150;-110.320;2023-06-24T04:25:45;30.20;90.20
64501;DHT22;50874;24.150;-110.320;2023-06-24T04:28:11;30.20;90.50
64501;DHT22;50874;24.150;-110.320;2023-06-24T04:30:38;30.20;90.70
64501;DHT22;50874;24.150;-110.320;2023-06-24T04:33:05;30.10;90.90
64501;DHT22;50874;24.150;-110.320;2023-06-24T04:35:31;30.10;91.20
64501;DHT22;50874;24.150;-110.320;2023-06-24T04:37:58;30.20;91.70
64501;DHT22;50874;24.150;-110.320;2023-06-24T04:40:25;30.10;92.20
64501;DHT22;50874;24.150;-110.320;2023-06-24T04:42:51;30.10;92.60
64501;DHT22;50874;24.150;-110.320;2023-06-24T04:45:18;30.00;93.00
64501;DHT22;50874;24.150;-110.320;2023-06-24T04:47:44;30.00;94.00
64501;DHT22;50874;24.150;-110.320;2023-06-24T04:50:11;29.90;94.60
64501;DHT22;50874;24.150;-110.320;2023-06-24T04:52:38;29.90;95.20
64501;DHT22;50874;24.150;-110.320;2023-06-24T04:55:05;29.80;95.70
64501;DHT22;50874;24.150;-110.320;2023-06-24T04:57:32;29.80;96.00
64501;DHT22;50874;24.150;-110.320;2023-06-24T05:00:00;29.80;96.40
64501;DHT22;50874;24.150;-110.320;2023-06-24T05:02:26;29.80;96.90
64501;DHT22;50874;24.150;-110.320;2023-06-24T05:04:53;29.70;97.40
64501;DHT22;50874;24.150;-110.320;2023-06-24T05:07:19;29.70;98.00
64501;DHT22;50874;24.150;-110.320;2023-06-24T05:09:49;29.70;98.20
64501;DHT22;50874;24.150;-110.320;2023-06-24T05:12:17;29.70;97.80
64501;DHT22;50874;24.150;-110.320;2023-06-24T05:14:43;29.60;97.90
64501;DHT22;50874;24.150;-110.320;2023-06-24T05:17:10;29.60;97.90
64501;DHT22;50874;24.150;-110.320;2023-06-24T05:19:37;29.60;97.90
64501;DHT22;50874;24.150;-110.320;2023-06-24T05:22:03;29.60;97.50
64501;DHT22;50874;24.150;-110.320;2023-06-24T05:24:30;29.70;97.30
64501;DHT22;50874;24.150;-110.320;2023-06-24T05:26:56;29.70;97.10
64501;DHT22;50874;24.150;-110.320;2023-06-24T05:29:23;29.70;97.00
64501;DHT22;50874;24.150;-110.320;2023-06-24T05:31:49;29.70;96.50
64501;DHT22;50874;24.150;-110.320;2023-06-24T05:34:16;29.70;95.40
64501;DHT22;50874;24.150;-110.320;2023-06-24T05:36:42;29.70;94.80
64501;DHT22;50874;24.150;-110.320;2023-06-24T05:39:08;29.70;94.50
64501;DHT22;50874;24.150;-110.320;2023-06-24T05:41:35;29.80;94.10
64501;DHT22;50874;24.150;-110.320;2023-06-24T05:44:07;29.80;96.90
64501;DHT22;50874;24.150;-110.320;2023-06-24T05:46:36;29.70;98.60
64501;DHT22;50874;24.150;-110.320;2023-06-24T05:49:02;29.70;99.90
64501;DHT22;50874;24.150;-110.320;2023-06-24T05:51:29;29.60;99.90
64501;DHT22;50874;24.150;-110.320;2023-06-24T05:53:56;29.60;99.90
64501;DHT22;50874;24.150;-110.320;2023-06-24T05:56:22;29.50;99.90
64501;DHT22;50874;24.150;-110.320;2023-06-24T05:58:49;29.40;99.90
64501;DHT22;50874;24.150;-110.320;2023-06-24T06:01:16;29.40;99.90
64501;DHT22;50874;24.150;-110.320;2023-06-24T06:03:42;29.40;99.90
64501;DHT22;50874;24.150;-110.320;2023-06-24T06:06:08;29.30;99.90
64501;DHT22;50874;24.150;-110.320;2023-06-24T06:08:35;29.30;99.90
64501;DHT22;50874;24.150;-110.320;2023-06-24T06:11:01;29.20;99.90
64501;DHT22;50874;24.150;-110.320;2023-06-24T06:13:29;29.10;99.90
64501;DHT22;50874;24.150;-110.320;2023-06-24T06:15:56;29.10;99.90
64501;DHT22;50874;24.150;-110.320;2023-06-24T06:18:23;29.10;99.90
64501;DHT22;50874;24.150;-110.320;2023-06-24T06:20:49;29.00;99.90
64501;DHT22;50874;24.150;-110.320;2023-06-24T06:23:16;28.90;99.90
64501;DHT22;50874;24.150;-110.320;2023-06-24T06:25:43;28.80;99.90
64501;DHT22;50874;24.150;-110.320;2023-06-24T06:28:10;28.80;99.90
64501;DHT22;50874;24.150;-110.320;2023-06-24T06:30:36;28.70;99.90
64501;DHT22;50874;24.150;-110.320;2023-06-24T06:33:02;28.60;99.90
64501;DHT22;50874;24.150;-110.320;2023-06-24T06:35:29;28.50;99.90
64501;DHT22;50874;24.150;-110.320;2023-06-24T06:37:57;28.50;99.90
64501;DHT22;50874;24.150;-110.320;2023-06-24T06:40:24;28.50;99.90
64501;DHT22;50874;24.150;-110.320;2023-06-24T06:42:50;28.40;99.90
64501;DHT22;50874;24.150;-110.320;2023-06-24T06:45:17;28.40;99.90
64501;DHT22;50874;24.150;-110.320;2023-06-24T06:47:43;28.40;99.90
64501;DHT22;50874;24.150;-110.320;2023-06-24T06:50:10;28.30;99.90
64501;DHT22;50874;24.150;-110.320;2023-06-24T06:52:36;28.30;99.90
64501;DHT22;50874;24.150;-110.320;2023-06-24T06:55:04;28.30;99.90
64501;DHT22;50874;24.150;-110.320;2023-06-24T06:57:31;28.30;99.90
64501;DHT22;50874;24.150;-110.320;2023-06-24T06:59:57;28.30;99.90
64501;DHT22;50874;24.150;-110.320;2023-06-24T07:02:24;28.20;99.90
64501;DHT22;50874;24.150;-110.320;2023-06-24T07:04:50;28.10;99.90
64501;DHT22;50874;24.150;-110.320;2023-06-24T07:07:17;28.00;99.90
64501;DHT22;50874;24.150;-110.320;2023-06-24T07:09:43;27.90;99.90
64501;DHT22;50874;24.150;-110.320;2023-06-24T07:12:12;27.70;99.90
64501;DHT22;50874;24.150;-110.320;2023-06-24T07:14:39;27.70;99.90
64501;DHT22;50874;24.150;-110.320;2023-06-24T07:17:06;27.70;99.90
64501;DHT22;50874;24.150;-110.320;2023-06-24T07:19:33;27.70;99.90
64501;DHT22;50874;24.150;-110.320;2023-06-24T07:21:59;27.70;99.90
64501;DHT22;50874;24.150;-110.320;2023-06-24T07:24:26;27.70;99.90
64501;DHT22;50874;24.150;-110.320;2023-06-24T07:26:52;27.80;99.90
64501;DHT22;50874;24.150;-110.320;2023-06-24T07:29:19;27.80;99.90
64501;DHT22;50874;24.150;-110.320;2023-06-24T07:31:45;27.80;99.90
64501;DHT22;50874;24.150;-110.320;2023-06-24T07:34:11;27.80;99.90
64501;DHT22;50874;24.150;-110.320;2023-06-24T07:36:38;27.80;99.90
64501;DHT22;50874;24.150;-110.320;2023-06-24T07:39:04;27.80;99.90
64501;DHT22;50874;24.150;-110.320;2023-06-24T07:41:32;27.80;99.90
64501;DHT22;50874;24.150;-110.320;2023-06-24T07:43:59;27.80;99.90
64501;DHT22;50874;24.150;-110.320;2023-06-24T07:46:26;27.70;99.90
64501;DHT22;50874;24.150;-110.320;2023-06-24T07:48:53;27.70;99.90
64501;DHT22;50874;24.150;-110.320;2023-06-24T07:51:20;27.70;99.90
64501;DHT22;50874;24.150;-110.320;2023-06-24T07:53:46;27.70;99.90
64501;DHT22;50874;24.150;-110.320;2023-06-24T07:56:13;27.60;99.90
64501;DHT22;50874;24.150;-110.320;2023-06-24T07:58:39;27.50;99.90
64501;DHT22;50874;24.150;-110.320;2023-06-24T08:01:06;27.50;99.80
64501;DHT22;50874;24.150;-110.320;2023-06-24T08:03:33;27.50;99.80
64501;DHT22;50874;24.150;-110.320;2023-06-24T08:05:59;27.50;99.90
64501;DHT22;50874;24.150;-110.320;2023-06-24T08:08:26;27.50;99.40
64501;DHT22;50874;24.150;-110.320;2023-06-24T08:10:52;27.40;99.10
64501;DHT22;50874;24.150;-110.320;2023-06-24T08:13:19;27.30;99.00
64501;DHT22;50874;24.150;-110.320;2023-06-24T08:15:45;27.20;98.60
64501;DHT22;50874;24.150;-110.320;2023-06-24T08:18:12;27.10;98.40
64501;DHT22;50874;24.150;-110.320;2023-06-24T08:20:38;27.10;98.20
64501;DHT22;50874;24.150;-110.320;2023-06-24T08:23:04;27.00;98.20
64501;DHT22;50874;24.150;-110.320;2023-06-24T08:25:31;27.00;98.20
64501;DHT22;50874;24.150;-110.320;2023-06-24T08:27:57;27.10;98.30
64501;DHT22;50874;24.150;-110.320;2023-06-24T08:30:25;27.00;98.10
64501;DHT22;50874;24.150;-110.320;2023-06-24T08:32:52;27.00;98.00
64501;DHT22;50874;24.150;-110.320;2023-06-24T08:35:18;27.00;98.00
64501;DHT22;50874;24.150;-110.320;2023-06-24T08:37:44;27.00;98.00
64501;DHT22;50874;24.150;-110.320;2023-06-24T08:40:11;27.00;98.10
64501;DHT22;50874;24.150;-110.320;2023-06-24T08:42:38;26.90;98.10
64501;DHT22;50874;24.150;-110.320;2023-06-24T08:45:05;26.90;98.10
64501;DHT22;50874;24.150;-110.320;2023-06-24T08:47:31;26.90;98.10
64501;DHT22;50874;24.150;-110.320;2023-06-24T08:50:08;27.00;98.50
64501;DHT22;50874;24.150;-110.320;2023-06-24T08:52:36;27.00;98.70
64501;DHT22;50874;24.150;-110.320;2023-06-24T08:55:06;27.00;99.00
64501;DHT22;50874;24.150;-110.320;2023-06-24T08:57:35;27.00;99.40
64501;DHT22;50874;24.150;-110.320;2023-06-24T09:00:02;26.90;99.90
64501;DHT22;50874;24.150;-110.320;2023-06-24T09:02:31;26.90;99.90
64501;DHT22;50874;24.150;-110.320;2023-06-24T09:04:58;26.90;99.90
64501;DHT22;50874;24.150;-110.320;2023-06-24T09:07:28;26.80;99.90
64501;DHT22;50874;24.150;-110.320;2023-06-24T09:09:55;26.70;99.90
64501;DHT22;50874;24.150;-110.320;2023-06-24T09:12:23;26.70;99.90
64501;DHT22;50874;24.150;-110.320;2023-06-24T09:14:50;26.70;99.90
64501;DHT22;50874;24.150;-110.320;2023-06-24T09:17:17;26.60;99.90
64501;DHT22;50874;24.150;-110.320;2023-06-24T09:19:44;26.60;99.90
64501;DHT22;50874;24.150;-110.320;2023-06-24T09:22:11;26.60;99.90
64501;DHT22;50874;24.150;-110.320;2023-06-24T09:24:48;26.50;99.90
64501;DHT22;50874;24.150;-110.320;2023-06-24T09:27:16;26.50;99.90
64501;DHT22;50874;24.150;-110.320;2023-06-24T09:29:46;26.40;99.90
64501;DHT22;50874;24.150;-110.320;2023-06-24T09:32:14;26.40;99.90
64501;DHT22;50874;24.150;-110.320;2023-06-24T09:34:40;26.30;99.90
64501;DHT22;50874;24.150;-110.320;2023-06-24T09:37:07;26.20;99.90
64501;DHT22;50874;24.150;-110.320;2023-06-24T09:39:39;26.20;99.90
64501;DHT22;50874;24.150;-110.320;2023-06-24T09:42:06;26.10;99.70
64501;DHT22;50874;24.150;-110.320;2023-06-24T09:44:33;26.00;99.40
64501;DHT22;50874;24.150;-110.320;2023-06-24T09:47:00;26.00;99.30
64501;DHT22;50874;24.150;-110.320;2023-06-24T09:49:26;25.90;99.10
64501;DHT22;50874;24.150;-110.320;2023-06-24T09:51:59;25.90;99.30
64501;DHT22;50874;24.150;-110.320;2023-06-24T09:54:28;25.80;99.40
64501;DHT22;50874;24.150;-110.320;2023-06-24T09:56:59;25.80;99.70
64501;DHT22;50874;24.150;-110.320;2023-06-24T09:59:27;25.80;99.90
64501;DHT22;50874;24.150;-110.320;2023-06-24T10:01:54;25.80;99.90
64501;DHT22;50874;24.150;-110.320;2023-06-24T10:04:21;25.90;99.90
64501;DHT22;50874;24.150;-110.320;2023-06-24T10:06:48;25.90;99.90
64501;DHT22;50874;24.150;-110.320;2023-06-24T10:09:18;25.90;99.90
64501;DHT22;50874;24.150;-110.320;2023-06-24T10:11:46;25.90;99.90
64501;DHT22;50874;24.150;-110.320;2023-06-24T10:14:14;25.90;99.90
64501;DHT22;50874;24.150;-110.320;2023-06-24T10:16:42;25.90;99.90
64501;DHT22;50874;24.150;-110.320;2023-06-24T10:19:09;25.90;99.90
64501;DHT22;50874;24.150;-110.320;2023-06-24T10:22:07;25.90;99.90
64501;DHT22;50874;24.150;-110.320;2023-06-24T10:24:35;25.80;99.90
64501;DHT22;50874;24.150;-110.320;2023-06-24T10:27:05;25.80;99.90
64501;DHT22;50874;24.150;-110.320;2023-06-24T10:29:35;25.80;99.90
64501;DHT22;50874;24.150;-110.320;2023-06-24T10:32:09;25.70;99.90
64501;DHT22;50874;24.150;-110.320;2023-06-24T10:37:09;25.70;99.90
64501;DHT22;50874;24.150;-110.320;2023-06-24T10:42:38;25.60;99.90
64501;DHT22;50874;24.150;-110.320;2023-06-24T10:47:41;25.60;98.40
64501;DHT22;50874;24.150;-110.320;2023-06-24T10:50:11;25.60;98.20
64501;DHT22;50874;24.150;-110.320;2023-06-24T10:52:45;25.40;97.90
64501;DHT22;50874;24.150;-110.320;2023-06-24T10:55:16;25.30;98.20
64501;DHT22;50874;24.150;-110.320;2023-06-24T10:57:44;25.30;98.30
64501;DHT22;50874;24.150;-110.320;2023-06-24T11:00:11;25.30;98.20
64501;DHT22;50874;24.150;-110.320;2023-06-24T11:02:38;25.30;98.30
64501;DHT22;50874;24.150;-110.320;2023-06-24T11:05:05;25.40;98.30
64501;DHT22;50874;24.150;-110.320;2023-06-24T11:07:34;25.30;98.20
64501;DHT22;50874;24.150;-110.320;2023-06-24T11:10:14;25.40;98.10
64501;DHT22;50874;24.150;-110.320;2023-06-24T11:12:42;25.30;97.80
64501;DHT22;50874;24.150;-110.320;2023-06-24T11:15:10;25.40;97.80
64501;DHT22;50874;24.150;-110.320;2023-06-24T11:17:37;25.40;97.90
64501;DHT22;50874;24.150;-110.320;2023-06-24T11:20:12;25.30;97.90
64501;DHT22;50874;24.150;-110.320;2023-06-24T11:22:43;25.40;98.10
64501;DHT22;50874;24.150;-110.320;2023-06-24T11:25:18;25.30;98.10
64501;DHT22;50874;24.150;-110.320;2023-06-24T11:27:45;25.30;98.20
64501;DHT22;50874;24.150;-110.320;2023-06-24T11:30:12;25.30;98.10
64501;DHT22;50874;24.150;-110.320;2023-06-24T11:32:40;25.30;98.00
64501;DHT22;50874;24.150;-110.320;2023-06-24T11:35:11;25.30;97.90
64501;DHT22;50874;24.150;-110.320;2023-06-24T11:37:42;25.30;97.50
64501;DHT22;50874;24.150;-110.320;2023-06-24T11:40:12;25.20;97.60
64501;DHT22;50874;24.150;-110.320;2023-06-24T11:42:40;25.20;97.10
64501;DHT22;50874;24.150;-110.320;2023-06-24T11:45:09;25.20;96.60
64501;DHT22;50874;24.150;-110.320;2023-06-24T11:47:38;25.20;96.40
64501;DHT22;50874;24.150;-110.320;2023-06-24T11:50:06;25.20;95.90
64501;DHT22;50874;24.150;-110.320;2023-06-24T11:55:02;25.20;95.30
64501;DHT22;50874;24.150;-110.320;2023-06-24T12:00:41;25.00;94.60
64501;DHT22;50874;24.150;-110.320;2023-06-24T12:03:09;25.00;94.40
64501;DHT22;50874;24.150;-110.320;2023-06-24T12:05:37;25.00;94.10
64501;DHT22;50874;24.150;-110.320;2023-06-24T12:08:07;25.00;94.00
64501;DHT22;50874;24.150;-110.320;2023-06-24T12:10:35;25.00;93.20
64501;DHT22;50874;24.150;-110.320;2023-06-24T12:13:04;25.00;92.30
64501;DHT22;50874;24.150;-110.320;2023-06-24T12:15:34;25.00;91.50
64501;DHT22;50874;24.150;-110.320;2023-06-24T12:18:01;25.00;91.30
64501;DHT22;50874;24.150;-110.320;2023-06-24T12:20:29;25.00;90.40
64501;DHT22;50874;24.150;-110.320;2023-06-24T12:22:56;25.00;90.10
64501;DHT22;50874;24.150;-110.320;2023-06-24T12:25:22;25.00;89.10
64501;DHT22;50874;24.150;-110.320;2023-06-24T12:27:50;24.90;89.30
64501;DHT22;50874;24.150;-110.320;2023-06-24T12:30:16;24.90;88.60
64501;DHT22;50874;24.150;-110.320;2023-06-24T12:32:43;24.90;88.70
64501;DHT22;50874;24.150;-110.320;2023-06-24T12:35:10;24.80;87.20
64501;DHT22;50874;24.150;-110.320;2023-06-24T12:37:37;24.80;87.50
64501;DHT22;50874;24.150;-110.320;2023-06-24T12:40:04;24.80;86.70
64501;DHT22;50874;24.150;-110.320;2023-06-24T12:42:31;24.80;85.20
64501;DHT22;50874;24.150;-110.320;2023-06-24T12:44:59;24.80;84.00
64501;DHT22;50874;24.150;-110.320;2023-06-24T12:47:26;24.80;84.10
64501;DHT22;50874;24.150;-110.320;2023-06-24T12:49:52;24.80;82.40
64501;DHT22;50874;24.150;-110.320;2023-06-24T12:52:19;24.80;82.70
64501;DHT22;50874;24.150;-110.320;2023-06-24T12:54:46;24.80;81.10
64501;DHT22;50874;24.150;-110.320;2023-06-24T12:57:12;24.80;80.60
64501;DHT22;50874;24.150;-110.320;2023-06-24T12:59:38;24.80;79.60
64501;DHT22;50874;24.150;-110.320;2023-06-24T13:02:05;24.90;79.90
64501;DHT22;50874;24.150;-110.320;2023-06-24T13:04:32;25.00;79.80
64501;DHT22;50874;24.150;-110.320;2023-06-24T13:06:58;25.20;79.00
64501;DHT22;50874;24.150;-110.320;2023-06-24T13:09:26;25.40;78.90
64501;DHT22;50874;24.150;-110.320;2023-06-24T13:11:52;25.60;77.10
64501;DHT22;50874;24.150;-110.320;2023-06-24T13:14:18;25.90;76.30
64501;DHT22;50874;24.150;-110.320;2023-06-24T13:16:45;25.90;76.20
64501;DHT22;50874;24.150;-110.320;2023-06-24T13:19:11;25.90;74.90
64501;DHT22;50874;24.150;-110.320;2023-06-24T13:21:38;25.80;74.60
64501;DHT22;50874;24.150;-110.320;2023-06-24T13:24:07;25.90;74.40
64501;DHT22;50874;24.150;-110.320;2023-06-24T13:26:34;26.10;73.70
64501;DHT22;50874;24.150;-110.320;2023-06-24T13:29:00;26.00;74.30
64501;DHT22;50874;24.150;-110.320;2023-06-24T13:31:28;26.10;73.30
64501;DHT22;50874;24.150;-110.320;2023-06-24T13:33:55;26.00;70.60
64501;DHT22;50874;24.150;-110.320;2023-06-24T13:36:33;26.00;69.50
64501;DHT22;50874;24.150;-110.320;2023-06-24T13:39:02;26.10;75.30
64501;DHT22;50874;24.150;-110.320;2023-06-24T13:41:29;26.10;69.40
64501;DHT22;50874;24.150;-110.320;2023-06-24T13:43:59;26.20;70.50
64501;DHT22;50874;24.150;-110.320;2023-06-24T13:46:26;26.30;70.40
64501;DHT22;50874;24.150;-110.320;2023-06-24T13:48:56;26.40;69.50
64501;DHT22;50874;24.150;-110.320;2023-06-24T13:51:23;26.60;71.00
64501;DHT22;50874;24.150;-110.320;2023-06-24T13:53:50;26.80;70.60
64501;DHT22;50874;24.150;-110.320;2023-06-24T13:56:18;26.90;71.60
64501;DHT22;50874;24.150;-110.320;2023-06-24T13:58:46;27.00;69.50
64501;DHT22;50874;24.150;-110.320;2023-06-24T14:01:12;27.10;69.30
64501;DHT22;50874;24.150;-110.320;2023-06-24T14:03:39;27.20;70.20
64501;DHT22;50874;24.150;-110.320;2023-06-24T14:06:06;27.20;71.10
64501;DHT22;50874;24.150;-110.320;2023-06-24T14:08:33;27.30;72.10
64501;DHT22;50874;24.150;-110.320;2023-06-24T14:11:00;27.40;72.40
64501;DHT22;50874;24.150;-110.320;2023-06-24T14:13:28;27.60;71.60
64501;DHT22;50874;24.150;-110.320;2023-06-24T14:15:55;28.30;70.90
64501;DHT22;50874;24.150;-110.320;2023-06-24T14:18:21;29.00;71.40
64501;DHT22;50874;24.150;-110.320;2023-06-24T14:20:49;29.50;75.90
64501;DHT22;50874;24.150;-110.320;2023-06-24T14:23:15;30.20;75.20
64501;DHT22;50874;24.150;-110.320;2023-06-24T14:25:42;30.90;75.50
64501;DHT22;50874;24.150;-110.320;2023-06-24T14:28:08;31.50;77.40
64501;DHT22;50874;24.150;-110.320;2023-06-24T14:30:34;31.40;80.20
64501;DHT22;50874;24.150;-110.320;2023-06-24T14:33:01;31.60;80.60
64501;DHT22;50874;24.150;-110.320;2023-06-24T14:35:28;32.10;79.90
64501;DHT22;50874;24.150;-110.320;2023-06-24T14:37:54;32.60;79.70
64501;DHT22;50874;24.150;-110.320;2023-06-24T14:40:21;32.70;79.00
64501;DHT22;50874;24.150;-110.320;2023-06-24T14:42:47;32.60;80.10
64501;DHT22;50874;24.150;-110.320;2023-06-24T14:45:14;32.80;80.10
64501;DHT22;50874;24.150;-110.320;2023-06-24T14:47:40;33.30;79.40
64501;DHT22;50874;24.150;-110.320;2023-06-24T14:50:07;33.80;78.00
64501;DHT22;50874;24.150;-110.320;2023-06-24T14:52:33;34.20;77.40
64501;DHT22;50874;24.150;-110.320;2023-06-24T14:55:00;34.60;75.80
64501;DHT22;50874;24.150;-110.320;2023-06-24T14:57:26;35.10;74.10
64501;DHT22;50874;24.150;-110.320;2023-06-24T14:59:53;35.30;71.00
64501;DHT22;50874;24.150;-110.320;2023-06-24T15:02:19;35.60;69.40
64501;DHT22;50874;24.150;-110.320;2023-06-24T15:04:46;36.20;67.90
64501;DHT22;50874;24.150;-110.320;2023-06-24T15:07:12;36.30;67.40
64501;DHT22;50874;24.150;-110.320;2023-06-24T15:09:42;36.40;66.30